Time;durP1;ratioP1;P1;durP2;ratioP2;P2;SDS_P1;SDS_P2;PMS_P1;PMS_P2;Temp;Humidity;BMP_temperature;BMP_pressure;BME280_temperature;BME280_humidity;BME280_pressure;Samples;Min_cycle;Max_cycle;Signal;HPM_P1;HPM_P2
2022/06/19 00:02:00;;;;;;;1.00;0.80;;;22.40;59.10;;;;;;5043402;28;43598;-63
2022/06/19 00:04:28;;;;;;;2.15;1.27;;;22.40;59.10;;;;;;5043820;28;44748;-63
2022/06/19 00:06:56;;;;;;;3.60;1.17;;;22.40;59.00;;;;;;5044708;28;43555;-63
2022/06/19 00:09:25;;;;;;;2.95;1.20;;;22.40;59.10;;;;;;5043111;28;43451;-63
2022/06/19 00:11:55;;;;;;;3.05;1.10;;;22.40;59.10;;;;;;5043096;28;44102;-62
2022/06/19 00:14:24;;;;;;;1.77;1.13;;;22.40;59.10;;;;;;5044162;28;44949;-63
2022/06/19 00:16:52;;;;;;;1.65;1.10;;;22.40;59.10;;;;;;5043268;28;44050;-63
2022/06/19 00:19:19;;;;;;;1.92;1.13;;;22.40;59.10;;;;;;5042593;28;43543;-63
2022/06/19 00:21:47;;;;;;;1.10;0.90;;;22.40;59.10;;;;;;5042237;28;43492;-63
2022/06/19 00:24:15;;;;;;;1.55;1.10;;;22.40;59.10;;;;;;5043891;28;44271;-63
2022/06/19 00:26:42;;;;;;;1.27;0.95;;;22.40;59.10;;;;;;5044748;28;43460;-63
2022/06/19 00:29:10;;;;;;;1.73;1.15;;;22.40;59.10;;;;;;5042786;28;43461;-63
2022/06/19 00:31:37;;;;;;;1.10;0.80;;;22.40;59.10;;;;;;5042411;28;43589;-62
2022/06/19 00:34:05;;;;;;;1.23;0.90;;;22.40;59.10;;;;;;5041621;28;44395;-63
2022/06/19 00:36:32;;;;;;;2.33;1.00;;;22.40;59.20;;;;;;5043728;28;43996;-63
2022/06/19 00:39:00;;;;;;;1.67;0.93;;;22.40;59.10;;;;;;5042030;28;43485;-62
2022/06/19 00:41:39;;;;;;;1.40;0.98;;;22.30;59.10;;;;;;5042231;28;43604;-63
2022/06/19 00:44:09;;;;;;;3.10;1.33;;;22.30;59.10;;;;;;5031892;28;45104;-63
2022/06/19 00:46:53;;;;;;;1.87;0.97;;;22.30;59.10;;;;;;5043234;28;43469;-63
2022/06/19 00:49:37;;;;;;;1.35;1.05;;;22.30;59.10;;;;;;5041016;28;43456;-63
2022/06/19 00:52:04;;;;;;;1.70;1.10;;;22.30;59.10;;;;;;5044207;28;43557;-63
2022/06/19 00:54:37;;;;;;;1.52;1.00;;;22.30;59.10;;;;;;5044089;28;43801;-62
2022/06/19 00:57:05;;;;;;;1.88;1.10;;;22.30;59.10;;;;;;5040054;28;44048;-63
2022/06/19 00:59:33;;;;;;;3.10;1.35;;;22.30;59.10;;;;;;5042010;28;43980;-62
2022/06/19 01:02:02;;;;;;;1.48;1.10;;;22.30;59.10;;;;;;5043214;28;43442;-62
2022/06/19 01:04:51;;;;;;;1.63;1.10;;;22.30;59.10;;;;;;5042782;28;43805;-62
2022/06/19 01:07:22;;;;;;;1.60;1.10;;;22.30;59.00;;;;;;5033105;28;43474;-63
2022/06/19 01:09:51;;;;;;;2.25;1.10;;;22.30;59.10;;;;;;5041866;28;43489;-63
2022/06/19 01:12:20;;;;;;;2.10;1.23;;;22.30;59.00;;;;;;5042915;28;43484;-62
2022/06/19 01:14:50;;;;;;;2.28;1.25;;;22.30;59.00;;;;;;5042013;28;44005;-63
2022/06/19 01:17:18;;;;;;;1.90;0.90;;;22.30;59.10;;;;;;5041541;28;43485;-62
2022/06/19 01:19:47;;;;;;;2.28;1.10;;;22.20;59.00;;;;;;5043289;28;43394;-63
2022/06/19 01:22:24;;;;;;;1.42;0.90;;;22.30;59.00;;;;;;5043295;28;43492;-62
2022/06/19 01:25:03;;;;;;;2.65;1.20;;;22.30;59.00;;;;;;5042511;28;43790;-63
2022/06/19 01:30:23;;;;;;;2.17;1.20;;;22.30;59.00;;;;;;5042073;28;43450;-62
2022/06/19 01:32:51;;;;;;;1.17;1.00;;;22.20;59.00;;;;;;5031565;28;43425;-63
2022/06/19 01:35:21;;;;;;;2.50;1.48;;;22.20;59.00;;;;;;5042835;28;44152;-62
2022/06/19 01:37:50;;;;;;;2.55;1.20;;;22.20;58.90;;;;;;5022827;28;43489;-62
2022/06/19 01:40:32;;;;;;;1.35;1.08;;;22.20;59.00;;;;;;5040119;28;43470;-62
2022/06/19 01:43:00;;;;;;;1.63;1.13;;;22.20;58.90;;;;;;5043200;28;43532;-62
2022/06/19 01:45:27;;;;;;;1.88;1.10;;;22.20;58.90;;;;;;5042072;28;44732;-63
2022/06/19 01:47:55;;;;;;;1.60;0.95;;;22.20;59.00;;;;;;5042900;28;44421;-62
2022/06/19 01:50:30;;;;;;;2.75;1.17;;;22.10;58.90;;;;;;5042784;28;43436;-62
2022/06/19 01:53:10;;;;;;;1.98;1.50;;;22.10;59.00;;;;;;5042754;28;43386;-63
2022/06/19 01:55:38;;;;;;;2.28;1.08;;;22.10;58.90;;;;;;5042862;28;44777;-63
2022/06/19 01:58:06;;;;;;;2.85;1.10;;;22.20;58.90;;;;;;5041666;28;43703;-63
2022/06/19 02:00:36;;;;;;;2.35;1.15;;;22.10;58.90;;;;;;5040925;28;43410;-63
2022/06/19 02:03:41;;;;;;;2.55;1.20;;;22.10;58.90;;;;;;5042683;28;43602;-63
2022/06/19 02:06:11;;;;;;;2.83;1.30;;;22.10;58.80;;;;;;5041731;28;44710;-62
2022/06/19 02:08:40;;;;;;;1.95;1.30;;;22.10;58.90;;;;;;5042562;28;43363;-62
2022/06/19 02:11:11;;;;;;;1.60;1.10;;;22.10;58.90;;;;;;5042193;28;43521;-63
2022/06/19 02:13:40;;;;;;;2.75;1.27;;;22.10;58.90;;;;;;5047866;28;43911;-62
2022/06/19 02:16:14;;;;;;;1.38;1.13;;;22.10;59.00;;;;;;5049038;28;43799;-62
2022/06/19 02:18:46;;;;;;;2.22;1.15;;;22.10;58.90;;;;;;5049189;28;43753;-63
2022/06/19 02:21:18;;;;;;;1.55;0.98;;;22.10;58.90;;;;;;5048931;28;43503;-63
2022/06/19 02:23:47;;;;;;;2.40;1.20;;;22.10;58.90;;;;;;5047736;28;43511;-63
2022/06/19 02:26:15;;;;;;;1.63;0.90;;;22.10;59.00;;;;;;5049788;28;43659;-63
2022/06/19 02:28:46;;;;;;;2.78;1.73;;;22.10;58.90;;;;;;5048754;28;43389;-62
2022/06/19 02:31:16;;;;;;;1.90;1.23;;;22.00;58.90;;;;;;5048730;28;43505;-63
2022/06/19 02:33:50;;;;;;;1.98;1.13;;;22.00;58.90;;;;;;5048195;28;43576;-63
2022/06/19 02:36:39;;;;;;;2.92;1.20;;;22.00;59.00;;;;;;5048826;28;44025;-63
2022/06/19 02:39:44;;;;;;;2.15;1.05;;;22.00;59.00;;;;;;5077475;28;43490;-63
2022/06/19 02:42:20;;;;;;;3.30;1.13;;;22.00;58.90;;;;;;5063040;28;43617;-63
2022/06/19 02:44:51;;;;;;;2.13;1.15;;;22.00;59.00;;;;;;5048847;28;43396;-63
2022/06/19 02:47:19;;;;;;;1.55;1.08;;;22.00;59.00;;;;;;5047955;28;43996;-63
2022/06/19 02:49:47;;;;;;;1.85;1.17;;;22.00;59.10;;;;;;5049432;28;43415;-62
2022/06/19 02:52:15;;;;;;;2.33;1.17;;;22.00;59.10;;;;;;5049367;28;43475;-62
2022/06/19 02:54:42;;;;;;;1.50;1.10;;;22.00;59.00;;;;;;5049448;28;43463;-62
2022/06/19 02:57:12;;;;;;;1.63;1.10;;;22.00;59.10;;;;;;5047612;28;44895;-63
2022/06/19 02:59:40;;;;;;;2.15;1.40;;;22.00;59.00;;;;;;5048542;28;43482;-63
2022/06/19 03:02:11;;;;;;;2.00;1.20;;;22.00;59.00;;;;;;5048770;28;43482;-63
2022/06/19 03:04:44;;;;;;;3.00;1.92;;;22.00;59.10;;;;;;5048007;28;43470;-63
2022/06/19 03:07:11;;;;;;;2.17;1.13;;;22.00;59.10;;;;;;5048044;28;45801;-63
2022/06/19 03:09:39;;;;;;;2.58;1.25;;;22.00;59.10;;;;;;5048431;28;43674;-63
2022/06/19 03:12:07;;;;;;;2.25;1.10;;;22.00;59.10;;;;;;5048463;28;43542;-63
2022/06/19 03:14:44;;;;;;;2.30;1.30;;;21.90;59.00;;;;;;5047942;28;43606;-63
2022/06/19 03:17:21;;;;;;;2.28;1.23;;;21.90;59.00;;;;;;5048458;28;45381;-63
2022/06/19 03:19:54;;;;;;;1.45;1.05;;;21.90;59.10;;;;;;5040257;28;43403;-62
2022/06/19 03:22:22;;;;;;;2.05;1.20;;;21.90;59.10;;;;;;5048276;28;43550;-62
2022/06/19 03:24:49;;;;;;;4.45;1.42;;;21.90;59.10;;;;;;5043620;28;43545;-63
2022/06/19 03:27:17;;;;;;;2.30;1.30;;;21.90;59.10;;;;;;5044920;28;44095;-63
2022/06/19 03:29:45;;;;;;;2.55;1.10;;;21.90;59.10;;;;;;5044697;28;43456;-63
2022/06/19 03:32:14;;;;;;;3.35;1.23;;;21.90;59.10;;;;;;5045027;28;43430;-63
2022/06/19 03:34:43;;;;;;;1.60;1.35;;;21.90;59.10;;;;;;5044839;28;43427;-62
2022/06/19 03:37:11;;;;;;;2.20;1.13;;;21.90;59.00;;;;;;5044362;28;44400;-62
2022/06/19 03:39:39;;;;;;;1.77;1.30;;;21.90;59.10;;;;;;5044906;28;43487;-62
2022/06/19 03:42:07;;;;;;;1.83;1.20;;;21.90;59.00;;;;;;5043762;28;43499;-63
2022/06/19 03:44:35;;;;;;;2.55;1.15;;;21.90;59.00;;;;;;5044413;28;43499;-63
2022/06/19 03:47:04;;;;;;;3.10;1.20;;;21.90;59.00;;;;;;5044395;28;43813;-64
2022/06/19 03:49:32;;;;;;;1.73;1.20;;;21.90;59.00;;;;;;5044559;28;43969;-63
2022/06/19 03:51:59;;;;;;;1.63;1.00;;;21.90;59.00;;;;;;5043742;28;43442;-63
2022/06/19 03:54:27;;;;;;;2.13;1.20;;;21.90;59.00;;;;;;5041492;28;43483;-63
2022/06/19 03:56:54;;;;;;;2.38;1.13;;;21.80;59.00;;;;;;5044074;28;43806;-64
2022/06/19 03:59:22;;;;;;;1.60;1.10;;;21.80;59.00;;;;;;5044866;28;43545;-63
2022/06/19 04:01:49;;;;;;;1.92;1.00;;;21.90;59.10;;;;;;5043044;28;43461;-63
2022/06/19 04:04:17;;;;;;;2.05;1.10;;;21.80;59.10;;;;;;5042952;28;44207;-63
2022/06/19 04:06:44;;;;;;;1.45;1.10;;;21.80;59.00;;;;;;5044205;28;43727;-63
2022/06/19 04:09:15;;;;;;;2.17;1.27;;;21.80;59.10;;;;;;5044364;28;44015;-63
2022/06/19 04:11:43;;;;;;;2.42;1.20;;;21.80;59.00;;;;;;5042876;28;43482;-63
2022/06/19 04:14:12;;;;;;;1.08;0.93;;;21.80;59.00;;;;;;5039224;28;43476;-63
2022/06/19 04:16:40;;;;;;;1.30;1.00;;;21.80;59.10;;;;;;5045184;28;43783;-63
2022/06/19 04:19:08;;;;;;;2.92;1.25;;;21.80;59.10;;;;;;5043538;28;44165;-63
2022/06/19 04:21:41;;;;;;;2.42;1.20;;;21.80;59.10;;;;;;5042535;28;43472;-64
2022/06/19 04:24:11;;;;;;;2.65;1.38;;;21.80;59.00;;;;;;5043997;28;43485;-63
2022/06/19 04:26:40;;;;;;;1.93;1.17;;;21.80;59.10;;;;;;5041328;28;43917;-63
2022/06/19 04:29:09;;;;;;;2.55;1.17;;;21.80;59.10;;;;;;5043742;28;43735;-64
2022/06/19 04:31:37;;;;;;;2.25;1.50;;;21.80;59.10;;;;;;5035487;28;43456;-64
2022/06/19 04:34:05;;;;;;;1.60;1.10;;;21.80;59.10;;;;;;5043682;28;43451;-64
2022/06/19 04:36:32;;;;;;;2.10;1.25;;;21.80;59.10;;;;;;5042089;28;43930;-63
2022/06/19 04:39:00;;;;;;;2.00;1.20;;;21.70;59.00;;;;;;5042681;28;43458;-64
2022/06/19 04:41:38;;;;;;;2.17;1.42;;;21.70;59.10;;;;;;5042651;28;43435;-64
2022/06/19 04:44:09;;;;;;;1.90;1.15;;;21.70;59.10;;;;;;5032457;28;43443;-64
2022/06/19 04:46:37;;;;;;;3.15;1.17;;;21.70;59.10;;;;;;5043701;28;43775;-63
2022/06/19 04:49:04;;;;;;;2.13;1.05;;;21.70;59.10;;;;;;5043087;28;43531;-63
2022/06/19 04:51:38;;;;;;;1.90;1.27;;;21.70;59.10;;;;;;5044334;28;43426;-64
2022/06/19 04:54:06;;;;;;;2.92;1.30;;;21.70;59.10;;;;;;5042476;28;43634;-64
2022/06/19 04:56:34;;;;;;;2.42;1.48;;;21.70;59.10;;;;;;5043342;28;43830;-63
2022/06/19 04:59:02;;;;;;;2.08;1.27;;;21.70;59.10;;;;;;5042683;28;44092;-63
2022/06/19 05:01:34;;;;;;;3.13;1.40;;;21.70;59.10;;;;;;5075881;28;43518;-63
2022/06/19 05:04:05;;;;;;;1.80;1.20;;;21.70;59.10;;;;;;5043763;28;43467;-63
2022/06/19 05:06:33;;;;;;;2.05;1.25;;;21.70;59.10;;;;;;5043419;28;43815;-63
2022/06/19 05:09:01;;;;;;;3.50;1.60;;;21.70;59.20;;;;;;5041067;28;44007;-63
2022/06/19 05:11:32;;;;;;;1.98;1.38;;;21.70;59.10;;;;;;5043137;28;43530;-63
2022/06/19 05:14:01;;;;;;;2.60;1.50;;;21.60;59.10;;;;;;5043362;28;43990;-62
2022/06/19 05:16:30;;;;;;;1.60;1.10;;;21.60;59.10;;;;;;5039508;28;44038;-62
2022/06/19 05:19:00;;;;;;;1.65;1.30;;;21.60;59.10;;;;;;5042726;28;43996;-62
2022/06/19 05:21:27;;;;;;;2.25;1.20;;;21.60;59.80;;;;;;5043154;28;43478;-62
2022/06/19 05:23:55;;;;;;;3.88;1.40;;;21.60;59.20;;;;;;5042633;28;43535;-63
2022/06/19 05:26:30;;;;;;;2.05;1.10;;;21.60;59.20;;;;;;5041720;28;43796;-62
2022/06/19 05:28:57;;;;;;;2.78;1.17;;;21.60;59.20;;;;;;5038682;28;43671;-62
2022/06/19 05:31:26;;;;;;;1.88;1.17;;;21.60;59.20;;;;;;5043494;28;43436;-62
2022/06/19 05:33:54;;;;;;;1.48;1.20;;;21.60;59.20;;;;;;5042692;28;43557;-62
2022/06/19 05:36:25;;;;;;;1.80;1.13;;;21.60;59.20;;;;;;5041594;28;44095;-62
2022/06/19 05:38:54;;;;;;;1.77;0.98;;;21.50;59.20;;;;;;5042793;28;43662;-62
2022/06/19 05:41:23;;;;;;;1.75;1.10;;;21.50;59.20;;;;;;5043040;28;43479;-62
2022/06/19 05:43:51;;;;;;;2.70;1.10;;;21.60;59.20;;;;;;5042451;28;43431;-62
2022/06/19 05:46:20;;;;;;;2.17;1.30;;;21.50;59.10;;;;;;5037309;28;44987;-62
2022/06/19 05:48:49;;;;;;;1.80;0.93;;;21.50;59.10;;;;;;5042471;28;44157;-62
2022/06/19 05:51:20;;;;;;;2.05;1.20;;;21.50;59.20;;;;;;5043457;28;43514;-62
2022/06/19 05:53:53;;;;;;;2.22;1.20;;;21.50;59.20;;;;;;5037691;28;43395;-62
2022/06/19 05:56:21;;;;;;;1.83;1.20;;;21.50;59.30;;;;;;5041865;28;43811;-62
2022/06/19 05:58:49;;;;;;;1.70;1.00;;;21.50;59.30;;;;;;5043143;28;43455;-63
2022/06/19 06:01:18;;;;;;;3.35;1.65;;;21.50;59.20;;;;;;5041167;28;43443;-63
2022/06/19 06:03:46;;;;;;;1.73;1.10;;;21.50;59.30;;;;;;5040711;28;43442;-63
2022/06/19 06:06:22;;;;;;;1.40;1.00;;;21.40;59.30;;;;;;5042693;28;43748;-63
2022/06/19 06:08:50;;;;;;;1.98;1.13;;;21.40;59.30;;;;;;5042665;28;43479;-63
2022/06/19 06:11:19;;;;;;;1.65;1.02;;;21.40;59.30;;;;;;5042183;28;43928;-63
2022/06/19 06:13:46;;;;;;;1.73;1.08;;;21.40;59.30;;;;;;5041150;28;43500;-64
2022/06/19 06:16:21;;;;;;;1.55;0.80;;;21.40;59.40;;;;;;5042329;28;44765;-63
2022/06/19 06:18:50;;;;;;;1.75;1.35;;;21.40;59.40;;;;;;5042493;28;44288;-63
2022/06/19 06:21:21;;;;;;;1.70;1.08;;;21.40;59.40;;;;;;5038182;28;43572;-63
2022/06/19 06:23:49;;;;;;;;;;;21.40;59.40;;;;;;5039251;28;44067;-63
2022/06/19 06:26:20;;;;;;;1.70;0.90;;;21.40;59.50;;;;;;5042495;28;43786;-63
2022/06/19 06:28:50;;;;;;;1.92;1.25;;;21.40;59.60;;;;;;5042520;28;43726;-63
2022/06/19 06:31:18;;;;;;;1.80;0.90;;;21.30;59.60;;;;;;5040977;28;43369;-63
2022/06/19 06:33:46;;;;;;;1.98;1.33;;;21.30;59.60;;;;;;5038355;28;43575;-63
2022/06/19 06:36:15;;;;;;;3.33;1.00;;;21.30;59.60;;;;;;5042459;28;43864;-62
2022/06/19 06:38:43;;;;;;;1.30;1.10;;;21.30;59.60;;;;;;5042099;28;43438;-63
2022/06/19 06:41:13;;;;;;;2.05;1.02;;;21.30;59.60;;;;;;5041214;28;43936;-63
2022/06/19 06:43:43;;;;;;;2.85;0.90;;;21.30;59.60;;;;;;5041934;28;43450;-63
2022/06/19 06:46:14;;;;;;;1.33;1.00;;;21.30;59.60;;;;;;5041843;28;44670;-63
2022/06/19 06:48:42;;;;;;;1.17;0.98;;;21.30;59.60;;;;;;5042065;28;43411;-63
2022/06/19 06:51:13;;;;;;;1.45;0.90;;;21.30;59.70;;;;;;5041601;28;43529;-63
2022/06/19 06:53:41;;;;;;;1.73;0.95;;;21.30;59.70;;;;;;5040878;28;43514;-63
2022/06/19 06:56:09;;;;;;;2.55;1.00;;;21.30;59.70;;;;;;5041662;28;44703;-63
2022/06/19 06:58:38;;;;;;;1.27;0.95;;;21.30;59.70;;;;;;5043640;28;43625;-62
2022/06/19 07:01:15;;;;;;;1.52;0.82;;;21.30;59.70;;;;;;5033946;28;43448;-63
2022/06/19 07:03:43;;;;;;;1.60;1.00;;;21.30;59.70;;;;;;5045722;28;43534;-63
2022/06/19 07:06:11;;;;;;;1.55;1.08;;;21.30;59.70;;;;;;5045060;28;43898;-63
2022/06/19 07:08:40;;;;;;;1.02;0.80;;;21.30;59.80;;;;;;5044347;28;43479;-63
2022/06/19 07:11:13;;;;;;;1.98;1.05;;;21.30;59.80;;;;;;5045131;28;43556;-63
2022/06/19 07:13:41;;;;;;;2.38;0.90;;;21.30;59.80;;;;;;5044991;28;43422;-63
2022/06/19 07:16:09;;;;;;;2.00;1.05;;;21.30;59.90;;;;;;5042554;28;44983;-63
2022/06/19 07:18:37;;;;;;;1.63;0.75;;;21.30;59.80;;;;;;5043784;28;43708;-62
2022/06/19 07:21:05;;;;;;;1.35;0.90;;;21.30;59.80;;;;;;5044014;28;43472;-63
2022/06/19 07:23:34;;;;;;;1.52;0.90;;;21.30;59.80;;;;;;5044659;28;43492;-63
2022/06/19 07:26:01;;;;;;;3.97;1.00;;;21.30;59.80;;;;;;5042127;28;44632;-63
2022/06/19 07:28:29;;;;;;;1.77;0.90;;;21.30;59.90;;;;;;5043665;28;43397;-64
2022/06/19 07:30:57;;;;;;;1.83;1.10;;;21.30;59.90;;;;;;5044759;28;43538;-63
2022/06/19 07:33:25;;;;;;;1.98;1.20;;;21.30;59.90;;;;;;5043857;28;43527;-63
2022/06/19 07:35:52;;;;;;;2.05;0.90;;;21.20;59.90;;;;;;5043242;28;43798;-63
2022/06/19 07:38:20;;;;;;;1.30;0.93;;;21.20;59.80;;;;;;5043452;28;43406;-63
2022/06/19 07:40:47;;;;;;;2.10;1.05;;;21.30;59.90;;;;;;5044799;28;43542;-63
2022/06/19 07:43:15;;;;;;;1.70;0.90;;;21.30;59.90;;;;;;5044978;28;43577;-63
2022/06/19 07:45:42;;;;;;;1.30;0.90;;;21.30;59.90;;;;;;5044557;28;44698;-62
2022/06/19 07:50:57;;;;;;;1.35;0.85;;;21.20;59.80;;;;;;5036368;28;43624;-63
2022/06/19 07:53:25;;;;;;;2.10;0.95;;;21.30;59.90;;;;;;5044508;28;43535;-63
2022/06/19 07:55:52;;;;;;;1.38;0.85;;;21.30;59.90;;;;;;5043332;28;43816;-62
2022/06/19 07:58:20;;;;;;;1.58;0.88;;;21.30;59.90;;;;;;5043052;28;43555;-63
2022/06/19 08:00:47;;;;;;;1.52;0.82;;;21.20;59.90;;;;;;5044564;28;43923;-63
2022/06/19 08:03:15;;;;;;;1.88;0.77;;;21.20;59.90;;;;;;5044439;28;43445;-63
2022/06/19 08:05:43;;;;;;;1.90;0.90;;;21.20;59.90;;;;;;5042715;28;43628;-63
2022/06/19 08:08:19;;;;;;;2.00;0.90;;;21.20;59.80;;;;;;5043785;28;43397;-63
2022/06/19 08:10:50;;;;;;;0.90;0.70;;;21.20;59.90;;;;;;5043127;28;43402;-63
2022/06/19 08:13:20;;;;;;;1.45;1.10;;;21.20;59.90;;;;;;5039244;28;43473;-63
2022/06/19 08:15:57;;;;;;;1.50;0.90;;;21.20;59.90;;;;;;5034653;28;44982;-63
2022/06/19 08:18:26;;;;;;;1.38;0.93;;;21.20;59.90;;;;;;5042985;28;45010;-63
2022/06/19 08:20:54;;;;;;;1.60;0.80;;;21.20;59.90;;;;;;5044005;28;43526;-63
2022/06/19 08:23:21;;;;;;;0.98;0.77;;;21.20;59.90;;;;;;5043514;28;43455;-62
2022/06/19 08:25:50;;;;;;;2.08;1.00;;;21.20;59.90;;;;;;5072530;27;44057;-63
2022/06/19 08:28:24;;;;;;;1.58;0.90;;;21.20;59.90;;;;;;5042594;28;43514;-62
2022/06/19 08:30:52;;;;;;;1.75;0.90;;;21.20;59.80;;;;;;5042778;28;43503;-63
2022/06/19 08:33:19;;;;;;;2.28;1.10;;;21.30;59.80;;;;;;5042282;28;43500;-62
2022/06/19 08:35:50;;;;;;;2.55;1.00;;;21.30;59.80;;;;;;5075084;28;44205;-63
2022/06/19 08:38:27;;;;;;;1.45;0.90;;;21.30;59.70;;;;;;5042558;28;43709;-62
2022/06/19 08:41:07;;;;;;;1.60;0.90;;;21.30;59.70;;;;;;5042663;28;43554;-62
2022/06/19 08:43:56;;;;;;;1.83;0.95;;;21.30;59.60;;;;;;5042344;28;43678;-62
2022/06/19 08:46:48;;;;;;;1.08;0.75;;;21.30;59.80;;;;;;5041349;28;43837;-62
2022/06/19 08:49:32;;;;;;;2.70;1.30;;;21.30;59.90;;;;;;5040925;28;43712;-63
2022/06/19 08:52:23;;;;;;;1.10;0.80;;;21.30;60.00;;;;;;5041814;28;43560;-63
2022/06/19 08:55:29;;;;;;;1.60;1.10;;;21.30;60.10;;;;;;5041448;28;43605;-62
2022/06/19 08:58:11;;;;;;;1.25;1.00;;;21.30;60.00;;;;;;5021634;28;43868;-63
2022/06/19 09:01:00;;;;;;;1.73;0.90;;;21.30;60.00;;;;;;5041560;28;43562;-63
2022/06/19 09:06:37;;;;;;;1.17;0.77;;;21.20;60.00;;;;;;5042166;28;43629;-63
2022/06/19 09:09:14;;;;;;;1.55;0.90;;;21.30;59.90;;;;;;5041412;28;43801;-61
2022/06/19 09:12:02;;;;;;;1.85;1.00;;;21.30;60.00;;;;;;5041932;28;43605;-62
2022/06/19 09:14:44;;;;;;;1.92;0.63;;;21.30;60.00;;;;;;5041635;28;43461;-63
2022/06/19 09:17:19;;;;;;;1.75;1.00;;;21.30;60.10;;;;;;5041661;28;43452;-63
2022/06/19 09:20:19;;;;;;;1.60;1.05;;;21.30;60.10;;;;;;5039564;28;43750;-63
2022/06/19 09:23:12;;;;;;;1.20;0.90;;;21.30;60.10;;;;;;5036949;28;43490;-63
2022/06/19 09:26:08;;;;;;;1.00;0.80;;;21.30;60.00;;;;;;5001911;28;43485;-63
2022/06/19 09:28:56;;;;;;;1.60;1.00;;;21.30;60.10;;;;;;5042038;28;43595;-63
2022/06/19 09:31:30;;;;;;;1.27;1.08;;;21.30;60.10;;;;;;5038762;28;43797;-63
2022/06/19 09:34:08;;;;;;;1.52;0.80;;;21.30;60.00;;;;;;5042085;28;43712;-63
2022/06/19 09:36:55;;;;;;;2.00;1.10;;;21.30;60.20;;;;;;5036326;28;43415;-63
2022/06/19 09:39:28;;;;;;;1.40;0.75;;;21.30;60.00;;;;;;5040849;28;43507;-63
2022/06/19 09:42:03;;;;;;;1.23;0.90;;;21.30;60.00;;;;;;5039392;28;44084;-57
2022/06/19 09:44:57;;;;;;;1.08;0.73;;;21.30;60.40;;;;;;5040269;28;43486;-62
2022/06/19 09:47:38;;;;;;;3.00;1.10;;;21.30;60.10;;;;;;5039496;28;43478;-61
2022/06/19 09:50:51;;;;;;;1.50;0.75;;;21.30;60.00;;;;;;5039388;28;43458;-61
2022/06/19 09:53:44;;;;;;;1.60;0.95;;;21.30;60.00;;;;;;5041055;28;44072;-62
2022/06/19 09:56:56;;;;;;;1.08;0.60;;;21.30;60.00;;;;;;5040494;28;43910;-61
2022/06/19 09:59:31;;;;;;;1.38;1.00;;;21.30;60.00;;;;;;5039498;28;43501;-62
2022/06/19 10:02:10;;;;;;;2.47;1.05;;;21.30;60.00;;;;;;5038976;28;43508;-62
2022/06/19 10:04:44;;;;;;;1.98;1.00;;;21.30;60.00;;;;;;5039574;28;43862;-62
2022/06/19 10:07:40;;;;;;;1.00;0.60;;;21.30;59.90;;;;;;5040512;28;43453;-62
2022/06/19 10:10:17;;;;;;;0.60;0.50;;;21.30;60.00;;;;;;5040853;28;43527;-62
2022/06/19 10:12:48;;;;;;;1.08;0.80;;;21.30;60.00;;;;;;5019635;28;43566;-62
2022/06/19 10:15:39;;;;;;;1.17;0.70;;;21.30;59.90;;;;;;5039823;28;44975;-62
2022/06/19 10:18:34;;;;;;;1.40;0.80;;;21.30;59.90;;;;;;5040485;28;43473;-62
2022/06/19 10:22:13;;;;;;;1.48;0.80;;;21.40;59.90;;;;;;5035567;28;43533;-62
2022/06/19 10:24:47;;;;;;;1.40;0.70;;;21.40;60.00;;;;;;5039558;28;43533;-62
2022/06/19 10:27:18;;;;;;;1.63;1.08;;;21.40;60.00;;;;;;5039129;28;44040;-63
2022/06/19 10:29:52;;;;;;;1.30;0.68;;;21.40;60.00;;;;;;5038477;28;44103;-62
2022/06/19 10:32:51;;;;;;;0.80;0.70;;;21.40;60.00;;;;;;5040095;28;43439;-62
2022/06/19 10:35:32;;;;;;;1.42;0.75;;;21.50;60.00;;;;;;5039020;28;43426;-62
2022/06/19 10:38:37;;;;;;;1.20;0.60;;;21.50;60.00;;;;;;5043276;28;44325;-61
2022/06/19 10:44:58;;;;;;;2.20;0.70;;;21.50;60.00;;;;;;5042386;28;44016;-61
2022/06/19 10:48:10;;;;;;;2.13;0.80;;;21.50;60.10;;;;;;5032325;28;43585;-62
2022/06/19 10:50:43;;;;;;;1.23;0.70;;;21.50;60.10;;;;;;5027649;28;44176;-62
2022/06/19 10:53:35;;;;;;;1.45;0.80;;;21.50;60.10;;;;;;5042963;28;43483;-61
2022/06/19 10:56:26;;;;;;;2.03;0.80;;;21.50;60.00;;;;;;5043183;28;43506;-62
2022/06/19 10:58:56;;;;;;;1.00;0.80;;;21.50;60.00;;;;;;5042940;28;43831;-62
2022/06/19 11:04:34;;;;;;;2.20;0.80;;;21.50;60.00;;;;;;5044633;28;43551;-62
2022/06/19 11:07:16;;;;;;;1.10;0.63;;;21.60;60.00;;;;;;5045277;28;43415;-62
2022/06/19 11:09:47;;;;;;;1.08;0.50;;;21.50;60.10;;;;;;5045382;28;43560;-61
2022/06/19 11:12:21;;;;;;;1.40;0.90;;;21.60;60.10;;;;;;5044445;28;44459;-62
2022/06/19 11:14:57;;;;;;;1.15;0.85;;;21.60;60.00;;;;;;5043950;28;43458;-62
2022/06/19 11:17:33;;;;;;;0.93;0.77;;;21.60;60.10;;;;;;5045247;28;43406;-61
2022/06/19 11:20:24;;;;;;;1.88;0.90;;;21.60;60.00;;;;;;5045209;28;43495;-61
2022/06/19 11:23:20;;;;;;;1.70;0.70;;;21.60;60.00;;;;;;5075820;28;44328;-61
2022/06/19 11:26:05;;;;;;;1.40;0.70;;;21.60;60.00;;;;;;5039730;28;43495;-62
2022/06/19 11:28:41;;;;;;;0.63;0.52;;;21.60;60.00;;;;;;5044468;28;43503;-62
2022/06/19 11:31:15;;;;;;;1.08;0.73;;;21.60;60.00;;;;;;5044277;28;43511;-62
2022/06/19 11:33:43;;;;;;;1.70;0.80;;;21.60;60.00;;;;;;5044585;28;43734;-63
2022/06/19 11:36:36;;;;;;;1.05;0.95;;;21.60;60.00;;;;;;5068779;28;43498;-62
2022/06/19 11:39:38;;;;;;;0.90;0.65;;;21.60;60.00;;;;;;5074837;27;43456;-62
2022/06/19 11:42:28;;;;;;;0.50;0.50;;;21.70;59.90;;;;;;5041593;28;43494;-62
2022/06/19 11:45:13;;;;;;;0.77;0.50;;;21.70;59.80;;;;;;5040954;28;44199;-62
2022/06/19 11:47:47;;;;;;;1.35;0.90;;;21.70;59.90;;;;;;5042585;28;43482;-62
2022/06/19 11:50:22;;;;;;;1.30;0.82;;;21.70;59.90;;;;;;5042911;28;43474;-62
2022/06/19 11:53:02;;;;;;;0.95;0.75;;;21.70;59.90;;;;;;5040058;28;43732;-61
2022/06/19 11:55:36;;;;;;;2.83;0.90;;;21.70;60.10;;;;;;5042149;28;43770;-63
2022/06/19 11:58:15;;;;;;;0.88;0.75;;;21.60;60.00;;;;;;5042042;28;43492;-63
2022/06/19 12:00:45;;;;;;;3.05;0.88;;;21.60;59.90;;;;;;5042994;28;43482;-62
2022/06/19 12:03:32;;;;;;;4.35;1.20;;;21.70;59.90;;;;;;5041876;28;44035;-62
2022/06/19 12:06:05;;;;;;;5.20;1.00;;;21.70;59.90;;;;;;5041644;28;44076;-62
2022/06/19 12:08:57;;;;;;;3.47;0.82;;;21.60;59.90;;;;;;5041170;28;43530;-62
2022/06/19 12:11:46;;;;;;;2.65;1.20;;;21.60;59.80;;;;;;5041851;28;43484;-62
2022/06/19 12:14:31;;;;;;;2.40;0.98;;;21.70;59.90;;;;;;5041704;28;43517;-63
2022/06/19 12:17:31;;;;;;;2.88;0.73;;;21.70;59.90;;;;;;5041333;28;44040;-63
2022/06/19 12:20:24;;;;;;;4.00;0.95;;;21.70;59.80;;;;;;5041791;28;43527;-63
2022/06/19 12:23:08;;;;;;;1.90;1.00;;;21.70;59.80;;;;;;5037943;28;43577;-62
2022/06/19 12:25:55;;;;;;;2.92;1.00;;;21.70;59.70;;;;;;5038483;28;43473;-62
2022/06/19 12:28:45;;;;;;;4.93;1.00;;;21.70;59.90;;;;;;5042506;28;44709;-62
2022/06/19 12:31:15;;;;;;;6.28;1.20;;;21.70;60.10;;;;;;5040137;28;43991;-61
2022/06/19 12:33:51;;;;;;;2.08;0.88;;;21.70;60.10;;;;;;5039019;28;43498;-61
2022/06/19 12:36:35;;;;;;;7.28;2.00;;;21.70;60.10;;;;;;5041391;28;43546;-62
2022/06/19 12:39:10;;;;;;;7.38;2.35;;;21.80;60.80;;;;;;5040055;28;45220;-62
2022/06/19 12:41:56;;;;;;;4.68;1.77;;;21.80;61.40;;;;;;5040966;28;43558;-62
2022/06/19 12:44:40;;;;;;;3.75;1.60;;;21.80;60.70;;;;;;5041531;28;43599;-62
2022/06/19 12:47:16;;;;;;;5.78;1.77;;;21.80;60.60;;;;;;5039168;28;43592;-62
2022/06/19 12:50:03;;;;;;;3.42;1.90;;;21.80;60.50;;;;;;5041377;28;45105;-62
2022/06/19 12:53:01;;;;;;;4.43;2.33;;;21.80;60.60;;;;;;5040526;28;43422;-62
2022/06/19 12:55:44;;;;;;;4.40;1.88;;;21.90;60.50;;;;;;5041594;28;43618;-61
2022/06/19 12:58:17;;;;;;;3.65;1.40;;;21.80;60.50;;;;;;5041546;28;43481;-62
2022/06/19 13:01:17;;;;;;;5.82;1.77;;;21.80;60.60;;;;;;5040513;28;44093;-62
2022/06/19 13:03:59;;;;;;;4.95;1.60;;;21.80;60.50;;;;;;5016089;28;43534;-62
2022/06/19 13:06:44;;;;;;;3.72;1.60;;;21.80;60.40;;;;;;5037877;28;43460;-62
2022/06/19 13:09:20;;;;;;;3.78;2.08;;;21.80;60.30;;;;;;5036794;28;43510;-61
2022/06/19 13:12:01;;;;;;;4.68;1.70;;;21.80;60.40;;;;;;5041060;28;43813;-62
2022/06/19 13:14:53;;;;;;;3.40;1.85;;;21.80;60.30;;;;;;5038887;28;43528;-62
2022/06/19 13:17:43;;;;;;;4.72;1.95;;;21.80;60.20;;;;;;5029565;28;43868;-62
2022/06/19 13:20:17;;;;;;;2.93;1.30;;;21.90;60.30;;;;;;5040749;28;43527;-62
2022/06/19 13:23:12;;;;;;;3.13;1.50;;;21.90;60.20;;;;;;5040900;28;45082;-62
2022/06/19 13:26:01;;;;;;;2.97;1.48;;;21.90;60.20;;;;;;5041252;28;43517;-62
2022/06/19 13:28:49;;;;;;;4.15;1.67;;;21.90;60.20;;;;;;5040382;28;43558;-62
2022/06/19 13:31:45;;;;;;;3.45;1.45;;;21.90;60.20;;;;;;5040367;28;43448;-62
2022/06/19 13:34:22;;;;;;;2.30;1.40;;;22.00;60.10;;;;;;5040020;28;44044;-62
2022/06/19 13:36:56;;;;;;;2.20;1.20;;;22.00;60.10;;;;;;5039805;28;43475;-62
2022/06/19 13:39:41;;;;;;;2.22;1.30;;;22.00;60.10;;;;;;5040560;28;43458;-62
2022/06/19 13:42:47;;;;;;;3.88;1.50;;;22.10;60.10;;;;;;5038015;28;43524;-62
2022/06/19 13:45:44;;;;;;;4.00;1.33;;;22.10;60.00;;;;;;4976076;28;44085;-62